Time;durP1;ratioP1;P1;durP2;ratioP2;P2;SDS_P1;SDS_P2;PMS_P1;PMS_P2;Temp;Humidity;BMP_temperature;BMP_pressure;BME280_temperature;BME280_humidity;BME280_pressure;Samples;Min_cycle;Max_cycle;Signal;HPM_P1;HPM_P2
2022/03/30 00:00:24;;;;;;;;;;;6.60;71.70;;;5.50;67.79;95430.06;4241602;33;19925;-81
2022/03/30 00:02:53;;;;;;;;;;;6.70;71.90;;;5.51;67.79;95430.91;4243204;33;19901;-82
2022/03/30 00:05:23;;;;;;;;;;;6.70;71.90;;;5.50;67.64;95427.34;4243198;33;20135;-82
2022/03/30 00:07:52;;;;;;;;;;;6.60;71.60;;;5.51;67.61;95425.47;4243291;33;19988;-82
2022/03/30 00:10:21;;;;;;;;;;;6.60;71.60;;;5.50;67.48;95424.63;4271188;33;19931;-83
2022/03/30 00:12:50;;;;;;;;;;;6.60;71.50;;;5.51;67.43;95425.47;4250138;33;19901;-82
2022/03/30 00:15:18;;;;;;;;;;;6.60;71.60;;;5.50;67.67;95421.13;4274286;33;20304;-82
2022/03/30 00:17:47;;;;;;;;;;;6.70;71.80;;;5.48;67.77;95423.25;4247693;33;20088;-83
2022/03/30 00:20:15;;;;;;;;;;;6.60;71.70;;;5.49;67.59;95430.31;4221232;33;20183;-82
2022/03/30 00:22:45;;;;;;;;;;;6.60;71.60;;;5.48;67.65;95421.38;4262971;33;20332;-83
2022/03/30 00:25:14;;;;;;;;;;;6.60;71.50;;;5.48;67.49;95421.38;4262773;33;20056;-83
2022/03/30 00:27:46;;;;;;;;;;;6.60;71.50;;;5.47;67.52;95427.88;4215135;33;20017;-83
2022/03/30 00:30:17;;;;;;;;;;;6.60;71.60;;;5.47;67.23;95422.44;4215239;33;19902;-80
2022/03/30 00:32:46;;;;;;;;;;;6.60;71.50;;;5.47;67.90;95422.44;4215909;33;20168;-81
2022/03/30 00:35:15;;;;;;;;;;;6.60;71.60;;;5.47;67.62;95424.34;4262723;33;19909;-81
2022/03/30 00:37:45;;;;;;;;;;;6.60;71.50;;;5.47;67.62;95419.75;4214856;33;19901;-81
2022/03/30 00:40:15;;;;;;;;;;;6.60;71.60;;;5.47;67.45;95417.03;4234412;33;20158;-81
2022/03/30 00:42:44;;;;;;;;;;;6.60;71.40;;;5.47;67.27;95411.59;4243582;33;19993;-81
2022/03/30 00:45:15;;;;;;;;;;;6.60;71.40;;;5.47;67.42;95410.75;4243700;33;19901;-81
2022/03/30 00:47:44;;;;;;;;;;;6.60;71.40;;;5.46;67.34;95399.09;4243061;33;19928;-81
2022/03/30 00:50:15;;;;;;;;;;;6.60;71.40;;;5.46;67.60;95407.25;4243606;33;19909;-81
2022/03/30 00:52:46;;;;;;;;;;;6.60;71.40;;;5.46;67.56;95407.25;4244050;33;19986;-81
2022/03/30 00:55:16;;;;;;;;;;;6.60;71.30;;;5.45;67.05;95402.06;4233812;33;20037;-81
2022/03/30 00:57:45;;;;;;;;;;;6.60;71.20;;;5.46;67.37;95404.53;4186488;33;19902;-81
2022/03/30 01:00:15;;;;;;;;;;;6.60;71.40;;;5.46;67.59;95403.69;4186515;33;19909;-81
2022/03/30 01:02:48;;;;;;;;;;;6.60;71.30;;;5.44;67.34;95398.53;4209719;33;20066;-81
2022/03/30 01:05:17;;;;;;;;;;;6.60;71.20;;;5.44;67.05;95397.69;4238719;33;20019;-81
2022/03/30 01:07:47;;;;;;;;;;;6.60;71.10;;;5.44;67.05;95393.09;4266090;33;20066;-81
2022/03/30 01:10:17;;;;;;;;;;;6.60;71.10;;;5.44;67.15;95390.38;4266679;33;20072;-81
2022/03/30 01:12:48;;;;;;;;;;;6.60;71.10;;;5.43;67.26;95391.47;4266489;33;19902;-81
2022/03/30 01:15:17;;;;;;;;;;;6.60;70.90;;;5.42;67.21;95389.81;4268073;33;19983;-81
2022/03/30 01:17:45;;;;;;;;;;;6.60;71.10;;;5.43;66.84;95391.47;4292605;33;20071;-81
2022/03/30 01:20:16;;;;;;;;;;;6.50;70.80;;;5.43;66.90;95377.88;4269042;33;19908;-81
2022/03/30 01:22:47;;;;;;;;;;;6.60;70.90;;;5.43;67.11;95377.88;4245136;33;19909;-81
2022/03/30 01:25:15;;;;;;;;;;;6.60;71.00;;;5.42;67.34;95373.53;4245250;33;19901;-81
2022/03/30 01:27:43;;;;;;;;;;;6.50;71.10;;;5.43;67.35;95375.19;4244564;33;19901;-81
2022/03/30 01:33:02;;;;;;;;;;;6.50;71.10;;;5.42;67.14;95381.69;4269040;33;19902;-81
2022/03/30 01:35:30;;;;;;;;;;;6.60;71.10;;;5.42;66.59;95376.25;4268894;33;20167;-81
2022/03/30 01:38:01;;;;;;;;;;;6.50;70.90;;;5.41;66.73;95366.47;4244777;33;19901;-81
2022/03/30 01:40:29;;;;;;;;;;;6.50;70.90;;;5.40;67.10;95370.25;4268946;33;20449;-81
2022/03/30 01:42:57;;;;;;;;;;;6.50;70.90;;;5.40;66.73;95372.97;4244960;33;19951;-81
2022/03/30 01:45:26;;;;;;;;;;;6.50;70.70;;;5.39;66.77;95368.63;4244913;33;20078;-81
2022/03/30 01:47:57;;;;;;;;;;;6.60;70.60;;;5.38;66.67;95365.09;4268400;33;20037;-81
2022/03/30 01:50:25;;;;;;;;;;;6.60;70.60;;;5.39;66.89;95368.63;4245086;33;20146;-81
2022/03/30 01:52:55;;;;;;;;;;;6.50;70.70;;;5.40;66.93;95374.88;4245381;33;20212;-81
2022/03/30 01:55:25;;;;;;;;;;;6.50;70.80;;;5.39;66.60;95376.75;4269400;33;20380;-81
2022/03/30 01:57:53;;;;;;;;;;;6.50;70.60;;;5.39;66.61;95368.63;4268984;33;20083;-82
2022/03/30 02:00:24;;;;;;;;;;;6.50;70.60;;;5.38;66.78;95375.13;4240609;33;20105;-81
2022/03/30 02:02:52;;;;;;;;;;;6.50;70.60;;;5.37;66.65;95379.75;4217506;33;20059;-81
2022/03/30 02:05:21;;;;;;;;;;;6.50;70.60;;;5.36;66.63;95375.38;4217678;33;19904;-81
2022/03/30 02:07:49;;;;;;;;;;;6.50;70.70;;;5.37;66.81;95376.19;4240905;33;20066;-81
2022/03/30 02:10:18;;;;;;;;;;;6.50;70.80;;;5.37;66.26;95376.19;4217696;33;19958;-81
2022/03/30 02:12:47;;;;;;;;;;;6.50;70.60;;;5.37;66.58;95376.19;4241888;33;19991;-81
2022/03/30 02:15:16;;;;;;;;;;;6.50;70.60;;;5.36;66.56;95371.84;4218694;33;19902;-82
2022/03/30 02:17:44;;;;;;;;;;;6.50;70.70;;;5.36;66.84;95374.56;4216308;33;20095;-81
2022/03/30 02:20:13;;;;;;;;;;;6.50;70.80;;;5.35;66.57;95373.75;4239499;33;19902;-81
2022/03/30 02:22:41;;;;;;;;;;;6.50;70.70;;;5.36;66.44;95379.97;4239690;33;20085;-81
2022/03/30 02:25:10;;;;;;;;;;;6.50;70.70;;;5.34;66.39;95382.16;4215443;33;19910;-82
2022/03/30 02:27:39;;;;;;;;;;;6.50;70.40;;;5.35;66.66;95379.19;4262808;33;19909;-81
2022/03/30 02:30:10;;;;;;;;;;;6.50;70.60;;;5.35;66.29;95375.66;4263053;33;20240;-82
2022/03/30 02:32:40;;;;;;;;;;;6.50;70.40;;;5.33;66.43;95375.91;4239546;33;19916;-81
2022/03/30 02:35:10;;;;;;;;;;;6.50;70.40;;;5.35;66.39;95383.81;4239362;33;19902;-82
2022/03/30 02:37:38;;;;;;;;;;;6.50;70.40;;;5.34;66.27;95385.69;4264110;33;20310;-81
2022/03/30 02:40:08;;;;;;;;;;;6.50;70.40;;;5.34;66.26;95382.16;4244182;33;19901;-82
2022/03/30 02:42:37;;;;;;;;;;;6.50;70.30;;;5.34;66.32;95376.72;4267993;33;19922;-81
2022/03/30 02:45:07;;;;;;;;;;;6.50;70.20;;;5.33;66.14;95375.91;4267475;33;19984;-81
2022/03/30 02:50:23;;;;;;;;;;;6.50;70.30;;;5.33;66.25;95377.81;4187795;33;19922;-81
2022/03/30 02:52:52;;;;;;;;;;;6.50;70.20;;;5.33;66.08;95366.94;4211165;33;19909;-81
2022/03/30 02:55:21;;;;;;;;;;;6.50;70.10;;;5.32;66.27;95373.44;4187742;33;20236;-81
2022/03/30 02:57:49;;;;;;;;;;;6.50;70.20;;;5.32;66.06;95370.75;4232219;33;19969;-81
2022/03/30 03:00:18;;;;;;;;;;;6.50;70.30;;;5.32;66.23;95376.16;4267533;33;20020;-81
2022/03/30 03:02:48;;;;;;;;;;;6.40;70.10;;;5.31;66.33;95366.38;4268157;33;19902;-81
2022/03/30 03:05:16;;;;;;;;;;;6.50;70.30;;;5.31;66.25;95366.38;4243345;33;19901;-81
2022/03/30 03:07:45;;;;;;;;;;;6.40;70.10;;;5.31;66.41;95366.38;4243028;33;19901;-81
2022/03/30 03:10:15;;;;;;;;;;;6.40;70.10;;;5.30;66.53;95367.47;4291407;33;19901;-81
2022/03/30 03:12:43;;;;;;;;;;;6.40;70.00;;;5.30;66.01;95364.75;4267347;33;19908;-81
2022/03/30 03:15:16;;;;;;;;;;;6.40;70.00;;;5.30;65.89;95373.69;4243526;33;19909;-81
2022/03/30 03:17:44;;;;;;;;;;;6.50;70.10;;;5.29;65.99;95363.09;4266549;33;19902;-82
2022/03/30 03:20:14;;;;;;;;;;;6.50;70.10;;;5.29;66.22;95368.53;4243337;33;20126;-82
2022/03/30 03:22:43;;;;;;;;;;;6.40;70.00;;;5.28;65.84;95369.59;4226597;33;19902;-82
2022/03/30 03:25:12;;;;;;;;;;;6.40;70.00;;;5.28;66.30;95364.19;4238505;33;19901;-82
2022/03/30 03:27:41;;;;;;;;;;;6.40;70.10;;;5.28;66.26;95372.31;4237827;33;19909;-81
2022/03/30 03:30:11;;;;;;;;;;;6.40;70.10;;;5.27;66.07;95371.53;4214865;33;20147;-82
2022/03/30 03:32:40;;;;;;;;;;;6.40;70.10;;;5.27;66.33;95367.97;4238589;33;19902;-82
2022/03/30 03:35:09;;;;;;;;;;;6.40;70.10;;;5.27;65.96;95367.97;4262215;33;19908;-82
2022/03/30 03:37:39;;;;;;;;;;;6.40;70.00;;;5.26;65.73;95353.59;4237318;33;19975;-82
2022/03/30 03:40:10;;;;;;;;;;;6.40;70.00;;;5.27;66.05;95359.81;4238408;33;19912;-82
2022/03/30 03:42:38;;;;;;;;;;;6.40;70.00;;;5.26;65.91;95359.03;4240485;33;20131;-82
2022/03/30 03:45:08;;;;;;;;;;;6.40;70.00;;;5.26;65.87;95367.16;4210126;33;19902;-82
2022/03/30 03:47:38;;;;;;;;;;;6.40;70.00;;;5.26;66.06;95366.31;4209721;33;19945;-82
2022/03/30 03:50:07;;;;;;;;;;;6.40;70.00;;;5.25;66.10;95361.97;4210376;33;19961;-82
2022/03/30 03:52:36;;;;;;;;;;;6.40;70.10;;;5.25;66.31;95361.97;4228852;33;20419;-82
2022/03/30 03:55:08;;;;;;;;;;;6.40;70.20;;;5.26;66.42;95363.63;4292285;33;20109;-82
2022/03/30 03:57:37;;;;;;;;;;;6.40;70.30;;;5.23;66.22;95376.63;4242989;33;20152;-82
2022/03/30 04:00:08;;;;;;;;;;;6.40;70.20;;;5.23;66.41;95367.66;4243730;33;19902;-82
2022/03/30 04:02:42;;;;;;;;;;;6.40;70.20;;;5.23;66.30;95360.34;4267706;33;19902;-81
2022/03/30 04:05:13;;;;;;;;;;;6.40;70.10;;;5.23;66.45;95368.47;4267605;33;19902;-82
2022/03/30 04:07:42;;;;;;;;;;;6.40;70.20;;;5.22;66.18;95366.88;4243318;33;20064;-82
2022/03/30 04:10:12;;;;;;;;;;;6.40;70.20;;;5.22;66.29;95366.88;4267963;33;19908;-82
2022/03/30 04:12:40;;;;;;;;;;;6.40;70.30;;;5.23;66.41;95359.53;4268122;33;20054;-82
2022/03/30 04:15:10;;;;;;;;;;;6.40;70.10;;;5.22;66.58;95369.56;4244217;33;19909;-81
2022/03/30 04:17:45;;;;;;;;;;;6.40;70.20;;;5.22;66.44;95374.16;4267863;33;20069;-82
2022/03/30 04:20:14;;;;;;;;;;;6.40;70.10;;;5.22;66.00;95375.00;4268785;33;20159;-82
2022/03/30 04:22:43;;;;;;;;;;;6.40;70.10;;;5.21;66.38;95378.78;4239975;33;19901;-83
2022/03/30 04:25:13;;;;;;;;;;;6.40;70.10;;;5.21;66.24;95373.38;4240838;33;19909;-82
2022/03/30 04:27:47;;;;;;;;;;;6.40;70.20;;;5.25;66.16;95378.25;4220076;33;19998;-82
2022/03/30 04:30:15;;;;;;;;;;;6.40;70.20;;;5.25;66.10;95375.53;4243289;33;19908;-82
2022/03/30 04:32:44;;;;;;;;;;;6.40;70.00;;;5.26;66.00;95382.59;4239978;33;19902;-83
2022/03/30 04:35:13;;;;;;;;;;;6.40;69.90;;;5.27;65.83;95393.22;4215116;33;19909;-83
2022/03/30 04:37:41;;;;;;;;;;;6.40;69.60;;;5.27;65.62;95393.22;4238131;33;19902;-83
2022/03/30 04:40:13;;;;;;;;;;;6.40;69.50;;;5.28;65.87;95392.16;4262340;33;19925;-81
2022/03/30 04:42:41;;;;;;;;;;;6.50;69.50;;;5.31;65.55;95401.66;4263103;33;20112;-82
2022/03/30 04:45:10;;;;;;;;;;;6.40;69.30;;;5.32;65.62;95395.16;4243391;33;19925;-81
2022/03/30 04:47:38;;;;;;;;;;;6.50;69.30;;;5.38;65.28;95399.53;4266503;33;19913;-82
2022/03/30 04:50:09;;;;;;;;;;;6.50;69.30;;;5.44;65.08;95401.25;4267483;33;20155;-82
2022/03/30 04:52:38;;;;;;;;;;;6.60;69.00;;;5.53;64.84;95409.75;4243252;33;19901;-82
2022/03/30 04:55:07;;;;;;;;;;;6.60;68.50;;;5.60;64.77;95412.25;4292658;33;19901;-82
2022/03/30 04:57:37;;;;;;;;;;;6.70;68.40;;;5.65;64.50;95412.28;4243202;33;19972;-82
2022/03/30 05:00:09;;;;;;;;;;;6.80;67.90;;;5.72;63.59;95418.31;4243681;33;19988;-82
2022/03/30 05:02:37;;;;;;;;;;;6.90;67.60;;;5.79;63.45;95418.91;4267681;33;20132;-82
2022/03/30 05:05:08;;;;;;;;;;;7.00;67.90;;;5.89;63.36;95411.91;4243703;33;19949;-82
2022/03/30 05:07:36;;;;;;;;;;;7.00;66.70;;;5.99;63.17;95415.56;4243616;33;19983;-82
2022/03/30 05:10:06;;;;;;;;;;;7.20;66.30;;;6.10;62.79;95411.03;4292811;33;20217;-82
2022/03/30 05:12:35;;;;;;;;;;;7.30;66.10;;;6.19;62.87;95403.22;4243831;33;19908;-83
2022/03/30 05:15:06;;;;;;;;;;;7.40;66.30;;;6.29;63.32;95408.69;4221384;33;19909;-83
2022/03/30 05:17:34;;;;;;;;;;;7.40;66.80;;;6.40;63.61;95406.03;4238617;33;20468;-83
2022/03/30 05:20:04;;;;;;;;;;;7.50;67.20;;;6.44;64.82;95407.94;4260760;33;19964;-82
2022/03/30 05:22:33;;;;;;;;;;;7.60;68.00;;;6.45;64.82;95408.78;4268075;33;19909;-83
2022/03/30 05:25:02;;;;;;;;;;;7.60;68.10;;;6.43;64.93;95409.03;4245032;33;19902;-83
2022/03/30 05:27:30;;;;;;;;;;;7.70;68.50;;;6.44;65.06;95410.66;4238772;33;20128;-82
2022/03/30 05:29:59;;;;;;;;;;;7.70;68.40;;;6.45;64.72;95400.63;4216139;33;19902;-83
2022/03/30 05:32:29;;;;;;;;;;;7.70;68.40;;;6.48;65.31;95402.00;4239879;33;20125;-83
2022/03/30 05:34:57;;;;;;;;;;;7.80;68.40;;;6.53;65.25;95396.56;4240434;33;20004;-82
2022/03/30 05:37:26;;;;;;;;;;;7.80;68.20;;;6.61;64.68;95390.63;4264721;33;20097;-82
2022/03/30 05:39:54;;;;;;;;;;;7.90;68.10;;;6.69;64.70;95398.28;4264907;33;19962;-83
2022/03/30 05:42:23;;;;;;;;;;;8.10;67.50;;;6.84;64.26;95402.16;4218191;33;20466;-82
2022/03/30 05:44:52;;;;;;;;;;;8.30;67.20;;;6.98;64.01;95403.28;4219189;33;20001;-83
2022/03/30 05:47:20;;;;;;;;;;;8.50;66.60;;;7.14;63.65;95398.69;4218299;33;19910;-83
2022/03/30 05:49:50;;;;;;;;;;;8.70;65.80;;;7.32;63.04;95402.81;4254859;33;19901;-83
2022/03/30 05:52:19;;;;;;;;;;;8.90;64.90;;;7.50;62.50;95397.94;4247401;33;20093;-83
2022/03/30 05:54:47;;;;;;;;;;;9.20;63.80;;;7.67;62.15;95390.34;4254446;33;19902;-83
2022/03/30 05:57:16;;;;;;;;;;;9.40;62.90;;;7.83;61.09;95390.31;4209111;33;20122;-82
2022/03/30 05:59:45;;;;;;;;;;;9.60;62.10;;;7.91;60.35;95387.06;4209808;33;20166;-82
2022/03/30 06:02:14;;;;;;;;;;;9.70;61.50;;;7.96;60.69;95383.50;4212133;33;20213;-82
2022/03/30 06:04:42;;;;;;;;;;;9.70;61.30;;;7.94;60.47;95386.50;4188535;33;19903;-82
2022/03/30 06:07:12;;;;;;;;;;;9.60;61.10;;;7.89;60.47;95389.25;4188124;33;19903;-82
2022/03/30 06:09:41;;;;;;;;;;;9.50;61.30;;;7.80;60.85;95391.69;4211857;33;20101;-82
2022/03/30 06:12:11;;;;;;;;;;;9.40;61.60;;;7.70;60.78;95390.84;4211615;33;20126;-82
2022/03/30 06:14:41;;;;;;;;;;;9.20;62.10;;;7.58;61.00;95389.22;4211561;33;20087;-82
2022/03/30 06:17:09;;;;;;;;;;;9.00;62.80;;;7.46;61.69;95383.22;4211471;33;20285;-83
2022/03/30 06:19:38;;;;;;;;;;;8.90;63.60;;;7.33;61.78;95377.22;4189050;33;19902;-82
2022/03/30 06:22:08;;;;;;;;;;;8.70;64.10;;;7.23;62.51;95385.38;4212558;33;20006;-82
2022/03/30 06:24:39;;;;;;;;;;;8.60;64.80;;;7.13;62.59;95372.56;4225714;33;19981;-83
2022/03/30 06:27:08;;;;;;;;;;;8.40;65.20;;;7.03;63.22;95370.66;4189421;33;19902;-82
2022/03/30 06:29:37;;;;;;;;;;;8.40;65.90;;;6.97;63.59;95377.16;4189708;33;19903;-82
2022/03/30 06:32:06;;;;;;;;;;;8.20;66.20;;;6.93;63.94;95376.03;4212732;33;19922;-82
2022/03/30 06:34:35;;;;;;;;;;;8.20;66.70;;;6.89;64.32;95372.25;4214830;33;19910;-83
2022/03/30 06:37:05;;;;;;;;;;;8.10;67.00;;;6.85;64.10;95376.56;4294890;33;19961;-83
2022/03/30 06:39:33;;;;;;;;;;;8.10;67.30;;;6.81;64.51;95376.31;4272536;33;19901;-82
2022/03/30 06:42:05;;;;;;;;;;;8.00;67.50;;;6.80;64.42;95368.38;4244652;33;20315;-82
2022/03/30 06:44:33;;;;;;;;;;;8.00;67.80;;;6.77;64.35;95377.91;4268231;33;20055;-82
2022/03/30 06:47:02;;;;;;;;;;;8.00;68.80;;;6.77;64.76;95379.81;4267532;33;19902;-82
2022/03/30 06:49:30;;;;;;;;;;;8.00;68.10;;;6.77;64.94;95379.81;4244094;33;20128;-82
2022/03/30 06:51:59;;;;;;;;;;;7.90;68.30;;;6.79;64.39;95374.91;4213162;33;19909;-82
2022/03/30 06:54:27;;;;;;;;;;;7.90;68.30;;;6.78;65.17;95371.38;4187831;33;19910;-82
2022/03/30 06:56:55;;;;;;;;;;;7.90;68.40;;;6.80;64.71;95384.72;4210417;33;20040;-83
2022/03/30 06:59:25;;;;;;;;;;;7.90;68.40;;;6.81;64.89;95380.91;4210755;33;19902;-83
2022/03/30 07:01:55;;;;;;;;;;;7.90;68.60;;;6.84;64.92;95380.38;4235409;33;19902;-82
2022/03/30 07:04:24;;;;;;;;;;;7.90;68.60;;;6.84;65.04;95381.19;4210857;33;19914;-82
2022/03/30 07:12:24;;;;;;;;;;;8.00;68.50;;;6.90;64.91;95382.03;4243710;33;19901;-82
2022/03/30 07:14:54;;;;;;;;;;;8.00;68.50;;;6.91;64.57;95373.59;4267352;33;19902;-82
2022/03/30 07:17:22;;;;;;;;;;;8.00;68.50;;;6.95;64.65;95376.59;4243264;33;19901;-82
2022/03/30 07:19:52;;;;;;;;;;;8.10;68.40;;;6.96;64.81;95383.69;4267709;33;20232;-82
2022/03/30 07:22:20;;;;;;;;;;;8.00;68.40;;;6.99;64.17;95382.31;4267546;33;19908;-82
2022/03/30 07:24:49;;;;;;;;;;;8.10;68.40;;;7.00;64.11;95376.63;4267536;33;19901;-82
2022/03/30 07:27:17;;;;;;;;;;;8.10;68.40;;;7.01;64.20;95369.28;4292157;33;20414;-82
2022/03/30 07:29:48;;;;;;;;;;;8.10;68.30;;;7.03;64.39;95370.66;4267247;33;19924;-82
2022/03/30 07:32:19;;;;;;;;;;;8.10;68.30;;;7.06;64.09;95372.81;4267356;33;20107;-82
2022/03/30 07:34:49;;;;;;;;;;;8.10;68.30;;;7.07;64.20;95368.22;4267303;33;19901;-82
2022/03/30 07:37:17;;;;;;;;;;;8.10;68.30;;;7.11;64.35;95373.94;4243236;33;19908;-82
2022/03/30 07:39:46;;;;;;;;;;;8.10;68.20;;;7.14;64.64;95367.94;4243480;33;20152;-82
2022/03/30 07:42:15;;;;;;;;;;;8.20;68.10;;;7.15;64.38;95372.31;4267259;33;20265;-82
2022/03/30 07:44:43;;;;;;;;;;;8.20;68.10;;;7.17;63.89;95364.66;4267294;33;19902;-83
2022/03/30 07:47:26;;;;;;;;;;;8.20;68.00;;;7.19;64.14;95374.22;4242579;33;19901;-82
2022/03/30 07:49:54;;;;;;;;;;;8.20;68.10;;;7.20;64.28;95369.56;4243387;33;20114;-82
2022/03/30 07:53:24;;;;;;;;;;;8.20;67.90;;;7.23;64.06;95366.31;4243572;33;20148;-82
2022/03/30 07:55:53;;;;;;;;;;;8.30;68.10;;;7.24;63.77;95365.25;4267126;33;19901;-82
2022/03/30 07:58:21;;;;;;;;;;;8.30;68.00;;;7.26;63.94;95360.34;4267008;33;19901;-82
2022/03/30 08:00:50;;;;;;;;;;;8.30;68.00;;;7.27;64.05;95355.72;4267327;33;19912;-82
2022/03/30 08:03:20;;;;;;;;;;;8.30;68.00;;;7.28;64.33;95357.34;4243701;33;20268;-82
2022/03/30 08:05:49;;;;;;;;;;;8.30;67.80;;;7.28;64.12;95355.44;4243496;33;20095;-82
2022/03/30 08:08:17;;;;;;;;;;;8.30;67.90;;;7.26;63.77;95354.06;4216715;33;20042;-83
2022/03/30 08:10:45;;;;;;;;;;;8.30;67.80;;;7.24;63.96;95353.50;4263409;33;20031;-82
2022/03/30 08:13:14;;;;;;;;;;;8.30;67.80;;;7.22;64.23;95348.34;4215660;33;19902;-82
2022/03/30 08:15:43;;;;;;;;;;;8.30;68.00;;;7.18;63.93;95348.09;4238704;33;20125;-82
2022/03/30 08:18:12;;;;;;;;;;;8.20;67.80;;;7.17;64.44;95345.59;4262482;33;19924;-82
2022/03/30 08:23:28;;;;;;;;;;;8.20;68.10;;;7.19;64.11;95344.28;4266684;33;19901;-82
2022/03/30 08:25:56;;;;;;;;;;;8.20;68.10;;;7.19;64.40;95340.72;4267299;33;19908;-82
2022/03/30 08:28:25;;;;;;;;;;;8.30;68.30;;;7.21;63.98;95344.00;4242889;33;20124;-82
2022/03/30 08:30:53;;;;;;;;;;;8.20;68.20;;;7.20;64.68;95342.34;4243476;33;19901;-82
2022/03/30 08:33:26;;;;;;;;;;;8.20;68.10;;;7.20;64.24;95345.06;4243366;33;19901;-82
2022/03/30 08:35:56;;;;;;;;;;;8.30;68.20;;;7.20;64.28;95345.91;4243334;33;19902;-82
2022/03/30 08:38:25;;;;;;;;;;;8.20;68.10;;;7.21;64.31;95344.00;4220263;33;20360;-84
2022/03/30 08:40:56;;;;;;;;;;;8.30;68.20;;;7.20;64.36;95339.63;4262505;33;20101;-83
2022/03/30 08:43:25;;;;;;;;;;;8.20;68.10;;;7.20;64.44;95336.91;4215383;33;20416;-82
2022/03/30 08:45:56;;;;;;;;;;;8.30;68.30;;;7.20;64.54;95335.03;4238460;33;19902;-82
2022/03/30 08:48:25;;;;;;;;;;;8.30;68.30;;;7.18;64.22;95329.03;4238426;33;19902;-82
2022/03/30 08:50:53;;;;;;;;;;;8.20;68.30;;;7.17;64.47;95329.28;4262795;33;19909;-82
2022/03/30 08:53:23;;;;;;;;;;;8.30;68.30;;;7.18;64.23;95320.03;4215245;33;19924;-82
2022/03/30 08:55:52;;;;;;;;;;;8.20;68.30;;;7.16;64.27;95317.59;4238225;33;20225;-82
2022/03/30 08:58:20;;;;;;;;;;;8.30;68.40;;;7.16;64.51;95314.06;4238075;33;20139;-82
2022/03/30 09:00:59;;;;;;;;;;;8.30;68.40;;;7.15;64.65;95317.88;4238727;33;19909;-82
2022/03/30 09:03:36;;;;;;;;;;;8.20;68.30;;;7.13;64.70;95312.69;4237991;33;20173;-82
2022/03/30 09:06:05;;;;;;;;;;;8.20;68.40;;;7.11;64.90;95303.97;4239683;33;20080;-83
2022/03/30 09:08:35;;;;;;;;;;;8.30;68.40;;;7.07;64.99;95302.88;4239898;33;19909;-82
2022/03/30 09:11:04;;;;;;;;;;;8.20;68.50;;;7.03;64.92;95291.75;4263398;33;20141;-82
2022/03/30 09:13:37;;;;;;;;;;;8.20;68.60;;;7.00;65.02;95295.00;4216860;33;19901;-82
2022/03/30 09:16:10;;;;;;;;;;;8.10;68.70;;;6.97;65.01;95287.34;4216994;33;19894;-83
2022/03/30 09:18:38;;;;;;;;;;;8.10;68.90;;;6.96;65.18;95285.72;4216203;33;20131;-82
2022/03/30 09:21:06;;;;;;;;;;;8.10;69.00;;;6.96;65.63;95279.47;4263918;33;20388;-82
2022/03/30 09:23:36;;;;;;;;;;;8.10;69.10;;;6.94;65.55;95273.50;4240045;33;20140;-82
2022/03/30 09:26:05;;;;;;;;;;;8.10;69.20;;;6.93;65.76;95269.94;4216447;33;19917;-82
2022/03/30 09:28:33;;;;;;;;;;;8.10;69.20;;;6.92;65.23;95273.75;4254952;33;20161;-82
2022/03/30 09:31:02;;;;;;;;;;;8.10;69.30;;;6.91;65.32;95270.22;4245379;33;19901;-82
2022/03/30 09:33:30;;;;;;;;;;;8.10;69.40;;;6.93;65.58;95263.69;4266515;33;19902;-82
2022/03/30 09:35:59;;;;;;;;;;;8.10;69.40;;;6.93;65.39;95264.50;4268058;33;20355;-82
2022/03/30 09:38:29;;;;;;;;;;;8.10;69.40;;;6.93;65.58;95269.13;4244794;33;19964;-82
2022/03/30 09:41:03;;;;;;;;;;;8.10;69.40;;;6.93;65.82;95255.53;4245381;33;20037;-82
2022/03/30 09:43:33;;;;;;;;;;;8.10;70.30;;;6.91;65.59;95259.34;4246763;33;20334;-82
2022/03/30 09:46:08;;;;;;;;;;;8.10;69.40;;;6.93;65.53;95247.38;4269054;33;19901;-82
2022/03/30 09:48:39;;;;;;;;;;;8.10;69.40;;;6.93;65.38;95247.38;4244894;33;19950;-82
2022/03/30 09:51:08;;;;;;;;;;;8.10;69.40;;;6.91;65.48;95236.72;4268956;33;19901;-82
2022/03/30 09:53:37;;;;;;;;;;;8.10;69.50;;;6.91;65.68;95243.00;4294009;33;20341;-82
2022/03/30 09:56:08;;;;;;;;;;;8.10;69.60;;;6.92;65.52;95246.53;4244940;33;20339;-82
2022/03/30 09:58:37;;;;;;;;;;;8.10;69.60;;;6.91;66.02;95242.16;4268710;33;19902;-81
2022/03/30 10:01:19;;;;;;;;;;;8.10;69.60;;;6.90;65.97;95237.84;4269278;33;20090;-82
2022/03/30 10:03:50;;;;;;;;;;;8.00;69.50;;;6.90;65.97;95229.69;4269385;33;19901;-81
2022/03/30 10:06:21;;;;;;;;;;;8.00;69.50;;;6.88;65.85;95219.06;4244450;33;19909;-82
2022/03/30 10:08:50;;;;;;;;;;;8.00;69.60;;;6.88;65.58;95220.97;4244750;33;19921;-81
2022/03/30 10:11:21;;;;;;;;;;;8.00;69.60;;;6.88;66.20;95223.69;4268353;33;19901;-82
2022/03/30 10:13:50;;;;;;;;;;;8.00;69.60;;;6.88;66.01;95223.69;4244553;33;19908;-82
2022/03/30 10:16:20;;;;;;;;;;;8.00;69.70;;;6.86;66.12;95234.03;4267845;33;20158;-82
2022/03/30 10:18:48;;;;;;;;;;;8.00;69.70;;;6.86;66.33;95223.94;4244763;33;20419;-82
2022/03/30 10:21:24;;;;;;;;;;;8.00;69.80;;;6.86;66.36;95231.31;4244933;33;20224;-82
2022/03/30 10:24:29;;;;;;;;;;;8.00;69.80;;;6.85;66.33;95218.78;4268775;33;20107;-81
2022/03/30 10:27:06;;;;;;;;;;;8.00;69.90;;;6.84;66.04;95217.16;4268080;33;20038;-82
2022/03/30 10:29:35;;;;;;;;;;;8.00;69.90;;;6.85;66.16;95219.59;4244378;33;19901;-82
2022/03/30 10:32:14;;;;;;;;;;;8.00;69.90;;;6.85;66.05;95213.34;4268389;33;19908;-82
2022/03/30 10:35:00;;;;;;;;;;;8.00;70.00;;;6.84;66.52;95212.50;4268425;33;20024;-82
2022/03/30 10:37:30;;;;;;;;;;;8.00;70.00;;;6.85;65.96;95205.19;4244374;33;19902;-82
2022/03/30 10:40:08;;;;;;;;;;;8.00;70.00;;;6.84;66.36;95209.78;4244497;33;19901;-82
2022/03/30 10:43:03;;;;;;;;;;;8.00;70.10;;;6.85;66.35;95207.91;4244529;33;19901;-81
2022/03/30 10:45:41;;;;;;;;;;;8.00;70.10;;;6.84;66.39;95211.72;4235934;33;20227;-82
2022/03/30 10:48:13;;;;;;;;;;;8.00;70.20;;;6.84;66.65;95200.84;4267958;33;20122;-82
2022/03/30 10:50:42;;;;;;;;;;;8.00;70.20;;;6.83;66.42;95193.75;4244442;33;19948;-82
2022/03/30 10:53:41;;;;;;;;;;;8.00;70.20;;;6.84;66.60;95201.63;4268234;33;20423;-82
2022/03/30 10:56:47;;;;;;;;;;;8.00;70.30;;;6.84;66.64;95195.38;4244102;33;19901;-82
2022/03/30 10:59:18;;;;;;;;;;;8.00;70.30;;;6.83;66.64;95189.16;4177912;34;19910;-82
2022/03/30 11:01:49;;;;;;;;;;;8.00;70.40;;;6.84;66.37;95189.94;4249747;33;20032;-82
2022/03/30 11:04:27;;;;;;;;;;;8.00;70.30;;;6.83;66.63;95186.44;4268195;33;19908;-82
2022/03/30 11:07:41;;;;;;;;;;;8.00;70.40;;;6.83;66.40;95178.25;4243382;33;19909;-82
2022/03/30 11:10:29;;;;;;;;;;;8.00;70.40;;;6.83;66.74;95175.53;4254088;33;19906;-82
2022/03/30 11:13:11;;;;;;;;;;;8.00;70.40;;;6.83;66.63;95172.00;4215593;33;19909;-82
2022/03/30 11:16:14;;;;;;;;;;;8.00;70.50;;;6.83;66.80;95163.84;4247877;33;19910;-82
2022/03/30 11:19:02;;;;;;;;;;;8.00;70.50;;;6.83;66.92;95169.28;4211260;33;19902;-82
2022/03/30 11:21:31;;;;;;;;;;;8.00;70.50;;;6.83;66.93;95174.72;4210674;33;20391;-82
2022/03/30 11:24:26;;;;;;;;;;;8.00;70.60;;;6.83;66.49;95172.00;4235066;33;19986;-82
2022/03/30 11:27:23;;;;;;;;;;;8.00;70.70;;;6.80;66.70;95167.91;4178016;33;19902;-82
2022/03/30 11:30:19;;;;;;;;;;;8.00;70.70;;;6.81;66.95;95163.28;4211062;33;19910;-81
2022/03/30 11:33:21;;;;;;;;;;;8.00;70.70;;;6.81;67.07;95168.72;4210319;33;19910;-81
2022/03/30 11:35:50;;;;;;;;;;;8.00;70.70;;;6.81;66.86;95168.72;4210133;33;20001;-81
2022/03/30 11:38:25;;;;;;;;;;;7.90;70.80;;;6.80;67.20;95165.19;4210034;33;20457;-81
2022/03/30 11:41:06;;;;;;;;;;;7.90;70.90;;;6.80;67.42;95159.75;4210224;33;20122;-81
2022/03/30 11:45:12;;;;;;;;;;;7.90;71.00;;;6.81;67.24;95160.56;4210179;33;19908;-81
2022/03/30 11:46:30;;;;;;;;;;;8.00;70.90;;;6.81;67.06;95158.69;4229659;33;20017;-81
2022/03/30 11:49:02;;;;;;;;;;;7.90;70.90;;;6.81;67.58;95152.41;4268268;33;20101;-81
2022/03/30 11:51:32;;;;;;;;;;;8.00;70.90;;;6.81;66.99;95163.28;4224422;33;20032;-82
2022/03/30 11:54:14;;;;;;;;;;;8.00;71.00;;;6.81;67.16;95163.28;4238968;33;20120;-81
2022/03/30 11:57:02;;;;;;;;;;;8.00;70.90;;;6.81;67.06;95157.84;4238001;33;19909;-81
2022/03/30 11:59:36;;;;;;;;;;;8.00;71.00;;;6.81;67.13;95158.69;4237964;33;19902;-81
2022/03/30 12:02:05;;;;;;;;;;;7.90;71.00;;;6.81;67.13;95152.41;4238444;33;20076;-82
2022/03/30 12:04:35;;;;;;;;;;;8.00;71.00;;;6.80;67.22;95150.75;4214972;33;19937;-81
2022/03/30 12:07:04;;;;;;;;;;;7.90;71.10;;;6.80;66.99;95154.31;4263262;33;20046;-82